Arrington, Tennessee
Current Conditions -  °F | °C
As of 7:53 AM on Thursday 29 Jan 2015 (Local Time) from KBNA Reporting Station
Broken Clouds Broken Clouds  
Wind Chill: 50°   Ceiling: 8500
Heat Index: 50°   Visibility: 10mi
Dew Point: 34°   Wind: 18mph
Humidity: 54%   Direction: 190°S
Pressure: 30.03"   Gusts: 29mph
Location:  35.87°N, 86.71°W
Report Text: KBNA 291353Z 19016G25KT 10SM BKN085 BKN100 10/01 A3003 RMK AO2 PK WND 20028/1259 RAB25E40 SLP169 P0000 T01000011 $
Loading
Personal Weather Stations






























Interactive Weather Map New forecast layout! Learn more

10-Day Weather Forecast

Advertisements
Track Severe Weather on mobile